Time;durP1;ratioP1;P1;durP2;ratioP2;P2;SDS_P1;SDS_P2;PMS_P1;PMS_P2;Temp;Humidity;BMP_temperature;BMP_pressure;BME280_temperature;BME280_humidity;BME280_pressure;Samples;Min_cycle;Max_cycle;Signal;HPM_P1;HPM_P2
2023/02/13 00:00:11;;;;;;;23.67;13.73;;;2.20;99.90;;;;;;5091835;28;20044;-81
2023/02/13 00:02:38;;;;;;;22.90;13.15;;;2.20;99.90;;;;;;5087805;28;20058;-82
2023/02/13 00:05:05;;;;;;;27.40;14.65;;;2.10;99.90;;;;;;5087383;28;20139;-82
2023/02/13 00:07:31;;;;;;;26.42;13.82;;;2.20;99.90;;;;;;5083369;28;20079;-81
2023/02/13 00:09:58;;;;;;;26.15;13.38;;;2.10;99.90;;;;;;5084840;28;20062;-82
2023/02/13 00:12:25;;;;;;;23.52;13.65;;;2.10;99.90;;;;;;5088434;28;20076;-82
2023/02/13 00:14:52;;;;;;;25.77;13.82;;;2.10;99.90;;;;;;5093758;28;20049;-82
2023/02/13 00:17:19;;;;;;;25.77;13.43;;;2.10;99.90;;;;;;5083060;28;20068;-82
2023/02/13 00:19:46;;;;;;;25.90;14.30;;;2.10;99.90;;;;;;5077847;28;20120;-82
2023/02/13 00:22:15;;;;;;;23.52;13.63;;;2.10;99.90;;;;;;5085365;28;20051;-82
2023/02/13 00:24:42;;;;;;;25.35;14.93;;;2.10;99.90;;;;;;5087517;28;20560;-81
2023/02/13 00:27:09;;;;;;;26.52;14.65;;;2.10;99.90;;;;;;5090434;28;20074;-81
2023/02/13 00:29:35;;;;;;;25.42;14.25;;;2.00;99.90;;;;;;5092413;28;20099;-83
2023/02/13 00:32:02;;;;;;;22.98;13.63;;;2.00;99.90;;;;;;5084180;28;20040;-81
2023/02/13 00:34:29;;;;;;;22.40;12.88;;;2.00;99.90;;;;;;5078761;28;20040;-82
2023/02/13 00:36:56;;;;;;;21.50;12.30;;;2.00;99.90;;;;;;5086095;28;20048;-81
2023/02/13 00:39:23;;;;;;;21.70;13.02;;;2.00;99.90;;;;;;5087481;28;20076;-81
2023/02/13 00:41:49;;;;;;;23.63;13.27;;;2.00;99.90;;;;;;5091956;28;20079;-82
2023/02/13 00:44:16;;;;;;;27.23;15.63;;;1.90;99.90;;;;;;5094871;28;20036;-82
2023/02/13 00:46:43;;;;;;;23.15;14.23;;;1.90;99.90;;;;;;5087789;28;20060;-81
2023/02/13 00:49:09;;;;;;;21.77;13.77;;;1.90;99.90;;;;;;5087995;28;20063;-82
2023/02/13 00:51:36;;;;;;;24.48;14.45;;;1.90;99.90;;;;;;5087398;28;20567;-82
2023/02/13 00:54:03;;;;;;;23.85;13.10;;;1.90;99.90;;;;;;5089152;28;20131;-82
2023/02/13 00:56:30;;;;;;;23.33;13.73;;;1.90;99.90;;;;;;5091828;28;20542;-81
2023/02/13 00:58:56;;;;;;;20.80;13.23;;;1.90;99.90;;;;;;5082372;28;20422;-82
2023/02/13 01:01:23;;;;;;;23.88;14.18;;;1.90;99.90;;;;;;5078609;28;20163;-82
2023/02/13 01:03:50;;;;;;;20.10;12.48;;;1.90;99.90;;;;;;5080853;28;20052;-82
2023/02/13 01:06:16;;;;;;;22.42;13.60;;;1.90;99.90;;;;;;5085520;28;20044;-82
2023/02/13 01:08:43;;;;;;;22.50;14.23;;;1.80;99.90;;;;;;5090383;28;20040;-81
2023/02/13 01:11:10;;;;;;;23.15;12.95;;;1.80;99.90;;;;;;5091600;28;20094;-82
2023/02/13 01:13:37;;;;;;;22.55;13.40;;;1.80;99.90;;;;;;5087827;28;20079;-82
2023/02/13 01:16:04;;;;;;;24.75;13.55;;;1.80;99.90;;;;;;5085194;28;20547;-82
2023/02/13 01:18:30;;;;;;;20.25;12.57;;;1.80;99.90;;;;;;5085358;28;20079;-82
2023/02/13 01:21:01;;;;;;;20.48;12.93;;;1.80;99.90;;;;;;5086520;28;20509;-82
2023/02/13 01:23:33;;;;;;;24.48;12.82;;;1.80;99.90;;;;;;5089406;28;20097;-82
2023/02/13 01:26:02;;;;;;;25.95;13.70;;;1.80;99.90;;;;;;5062671;28;20053;-81
2023/02/13 01:28:29;;;;;;;22.93;13.47;;;1.70;99.90;;;;;;5075548;28;20574;-81
2023/02/13 01:30:56;;;;;;;23.30;13.90;;;1.70;99.90;;;;;;5081775;28;20313;-82
2023/02/13 01:33:26;;;;;;;22.38;12.90;;;1.70;99.90;;;;;;5090266;28;20048;-82
2023/02/13 01:35:53;;;;;;;27.48;15.20;;;1.70;99.90;;;;;;5088009;28;20047;-82
2023/02/13 01:38:20;;;;;;;22.35;13.55;;;1.70;99.90;;;;;;5085551;28;20043;-82
2023/02/13 01:40:51;;;;;;;21.15;13.00;;;1.70;99.90;;;;;;5091510;28;20047;-82
2023/02/13 01:43:19;;;;;;;27.40;14.52;;;1.70;99.90;;;;;;5081960;28;20507;-82
2023/02/13 01:45:49;;;;;;;31.00;15.13;;;1.70;99.90;;;;;;5079726;28;20044;-81
2023/02/13 01:48:24;;;;;;;26.77;15.85;;;1.70;99.90;;;;;;5082746;28;20048;-81
2023/02/13 01:50:54;;;;;;;23.17;13.93;;;1.70;99.90;;;;;;5087547;28;20686;-81
2023/02/13 01:53:32;;;;;;;21.02;12.45;;;1.60;99.90;;;;;;5091321;28;20040;-83
2023/02/13 01:56:04;;;;;;;26.17;14.68;;;1.60;99.90;;;;;;5084309;28;20048;-81
2023/02/13 01:58:34;;;;;;;26.02;15.23;;;1.60;99.90;;;;;;5082525;28;20123;-81
2023/02/13 02:01:04;;;;;;;31.40;16.90;;;1.60;99.90;;;;;;5083353;28;20730;-82
2023/02/13 02:03:52;;;;;;;26.33;14.95;;;1.60;99.90;;;;;;5085699;28;20044;-81
2023/02/13 02:06:27;;;;;;;30.52;15.88;;;1.60;99.90;;;;;;5083626;28;20083;-81
2023/02/13 02:08:59;;;;;;;29.02;16.10;;;1.60;99.90;;;;;;5086145;28;20047;-82
2023/02/13 02:11:47;;;;;;;28.30;16.08;;;1.60;99.90;;;;;;5075399;28;20131;-81
2023/02/13 02:14:14;;;;;;;29.95;16.77;;;1.50;99.90;;;;;;5079572;28;20131;-81
2023/02/13 02:16:41;;;;;;;29.70;16.77;;;1.50;99.90;;;;;;5086094;28;20040;-82
2023/02/13 02:19:39;;;;;;;30.00;16.92;;;1.50;99.90;;;;;;5090829;28;20171;-81
2023/02/13 02:22:43;;;;;;;29.05;15.73;;;1.50;99.90;;;;;;5057279;28;20112;-81
2023/02/13 02:25:55;;;;;;;25.38;15.32;;;1.50;99.90;;;;;;5079160;28;20045;-81
2023/02/13 02:28:24;;;;;;;29.60;15.65;;;1.50;99.90;;;;;;5081269;28;20047;-81
2023/02/13 02:31:20;;;;;;;31.02;17.00;;;1.50;99.90;;;;;;5084353;28;20482;-82
2023/02/13 02:34:14;;;;;;;32.13;18.60;;;1.50;99.90;;;;;;5067611;28;20079;-82
2023/02/13 02:37:06;;;;;;;29.52;16.23;;;1.50;99.90;;;;;;5091532;28;20052;-83
2023/02/13 02:39:44;;;;;;;30.25;16.58;;;1.50;99.90;;;;;;5074676;28;20184;-82
2023/02/13 02:42:28;;;;;;;32.47;18.55;;;1.50;99.90;;;;;;5096844;28;20076;-81
2023/02/13 02:45:07;;;;;;;31.90;17.70;;;1.50;99.90;;;;;;5092401;28;20064;-82
2023/02/13 02:50:38;;;;;;;30.60;17.40;;;1.50;99.90;;;;;;5095064;28;20040;-81
2023/02/13 02:53:33;;;;;;;30.65;17.27;;;1.50;99.90;;;;;;5086460;28;20107;-81
2023/02/13 02:56:24;;;;;;;30.20;16.67;;;1.50;99.90;;;;;;5083353;28;20045;-82
2023/02/13 03:07:28;;;;;;;37.85;21.13;;;1.40;99.90;;;;;;5082372;28;20054;-81
2023/02/13 03:13:22;;;;;;;30.23;17.00;;;1.40;99.90;;;;;;5087820;28;20074;-81
2023/02/13 03:24:38;;;;;;;34.50;19.17;;;1.30;99.90;;;;;;5082320;28;20044;-81
2023/02/13 03:27:14;;;;;;;35.25;17.85;;;1.40;99.90;;;;;;5090839;28;20156;-82
2023/02/13 03:30:10;;;;;;;35.45;18.70;;;1.40;99.90;;;;;;5092630;28;20048;-81
2023/02/13 03:33:11;;;;;;;37.50;19.65;;;1.40;99.90;;;;;;5096150;28;20044;-81
2023/02/13 03:39:21;;;;;;;37.33;19.42;;;1.30;99.90;;;;;;5083132;28;20080;-82
2023/02/13 03:41:52;;;;;;;33.35;18.10;;;1.40;99.90;;;;;;5085028;28;20127;-82
2023/02/13 03:45:51;;;;;;;33.05;18.33;;;1.30;99.90;;;;;;5090960;28;20167;-81
2023/02/13 03:47:37;;;;;;;31.80;18.63;;;1.30;99.90;;;;;;5092509;28;20047;-81
2023/02/13 03:50:07;;;;;;;32.47;18.70;;;1.30;99.90;;;;;;5082678;28;20417;-81
2023/02/13 03:52:40;;;;;;;35.50;19.33;;;1.30;99.90;;;;;;5086571;28;20090;-80
2023/02/13 04:01:01;;;;;;;30.40;18.60;;;1.40;99.90;;;;;;5091524;28;20516;-81
2023/02/13 04:03:34;;;;;;;33.85;19.70;;;1.30;99.90;;;;;;5082410;28;20563;-81
2023/02/13 04:06:05;;;;;;;35.42;20.50;;;1.30;99.90;;;;;;5094244;28;20561;-81
2023/02/13 04:08:32;;;;;;;37.28;20.33;;;1.30;99.90;;;;;;5085626;28;20040;-81
2023/02/13 04:11:14;;;;;;;38.17;20.75;;;1.30;99.90;;;;;;5087901;28;20101;-81
2023/02/13 04:13:53;;;;;;;38.45;20.60;;;1.30;99.90;;;;;;5090539;28;20075;-81
2023/02/13 04:16:30;;;;;;;34.83;18.77;;;1.30;99.90;;;;;;5085087;28;20127;-81
2023/02/13 04:18:59;;;;;;;35.40;18.60;;;1.30;99.90;;;;;;5083843;28;20398;-82
2023/02/13 04:21:26;;;;;;;33.60;18.48;;;1.30;99.90;;;;;;5086436;28;20046;-81
2023/02/13 04:23:53;;;;;;;36.95;19.38;;;1.30;99.90;;;;;;5086374;28;20050;-81
2023/02/13 04:26:22;;;;;;;30.27;17.52;;;1.30;99.90;;;;;;5093142;28;20135;-81
2023/02/13 04:28:48;;;;;;;36.60;17.50;;;1.30;99.90;;;;;;5100140;28;20069;-81
2023/02/13 04:31:15;;;;;;;29.85;17.45;;;1.30;99.90;;;;;;5083734;28;20523;-81
2023/02/13 04:33:42;;;;;;;32.30;17.80;;;1.30;99.90;;;;;;5079340;28;20048;-81
2023/02/13 04:36:09;;;;;;;30.77;17.50;;;1.30;99.90;;;;;;5087597;28;20068;-82
2023/02/13 04:38:35;;;;;;;33.05;18.30;;;1.30;99.90;;;;;;5089534;28;20063;-81
2023/02/13 04:41:02;;;;;;;32.92;17.40;;;1.20;99.90;;;;;;5089504;28;20464;-81
2023/02/13 04:43:29;;;;;;;30.80;18.38;;;1.20;99.90;;;;;;5092757;28;20070;-81
2023/02/13 04:45:55;;;;;;;30.23;17.05;;;1.20;99.90;;;;;;5081458;28;20093;-80
2023/02/13 04:48:22;;;;;;;30.70;16.25;;;1.20;99.90;;;;;;5085904;28;20428;-81
2023/02/13 04:50:49;;;;;;;28.38;15.70;;;1.30;99.90;;;;;;5083384;28;20585;-80
2023/02/13 04:53:16;;;;;;;27.42;15.80;;;1.20;99.90;;;;;;5086168;28;20470;-82
2023/02/13 04:55:42;;;;;;;29.58;16.65;;;1.20;99.90;;;;;;5089566;28;20044;-81
2023/02/13 04:58:09;;;;;;;30.63;16.02;;;1.20;99.90;;;;;;5092189;28;20143;-82
2023/02/13 05:00:36;;;;;;;31.92;16.50;;;1.20;99.90;;;;;;5081365;28;20046;-81
2023/02/13 05:03:05;;;;;;;30.95;18.08;;;1.20;99.90;;;;;;5080486;28;20068;-80
2023/02/13 05:05:31;;;;;;;30.50;17.38;;;1.20;99.90;;;;;;5082705;28;20108;-81
2023/02/13 05:07:58;;;;;;;33.35;17.35;;;1.20;99.90;;;;;;5086456;28;20052;-81
2023/02/13 05:10:25;;;;;;;33.83;18.05;;;1.20;99.90;;;;;;5090413;28;20044;-81
2023/02/13 05:12:52;;;;;;;30.52;17.25;;;1.10;99.90;;;;;;5088501;28;20048;-81
2023/02/13 05:15:19;;;;;;;32.80;15.85;;;1.10;99.90;;;;;;5078197;28;20040;-81
2023/02/13 05:17:46;;;;;;;28.08;16.23;;;1.10;99.90;;;;;;5080953;28;20043;-81
2023/02/13 05:20:14;;;;;;;30.17;15.73;;;1.10;99.90;;;;;;5081968;28;20048;-81
2023/02/13 05:25:35;;;;;;;31.77;16.75;;;1.10;99.90;;;;;;5085578;28;20098;-81
2023/02/13 05:28:02;;;;;;;30.27;16.80;;;1.10;99.90;;;;;;5081479;28;20048;-81
2023/02/13 05:30:30;;;;;;;30.52;17.77;;;1.10;99.90;;;;;;5082042;28;20043;-79
2023/02/13 05:32:56;;;;;;;33.20;16.95;;;1.10;99.90;;;;;;5080618;28;20048;-80
2023/02/13 05:35:24;;;;;;;38.25;17.95;;;1.10;99.90;;;;;;5086986;28;20127;-81
2023/02/13 05:37:51;;;;;;;32.42;17.85;;;1.10;99.90;;;;;;5083752;28;20044;-81
2023/02/13 05:40:18;;;;;;;32.83;17.45;;;1.10;99.90;;;;;;5085720;28;20094;-81
2023/02/13 05:42:44;;;;;;;33.92;17.95;;;1.10;99.90;;;;;;5073616;28;20054;-81
2023/02/13 05:45:11;;;;;;;37.28;18.48;;;1.20;99.90;;;;;;5080215;28;20182;-80
2023/02/13 05:47:38;;;;;;;33.13;18.17;;;1.20;99.90;;;;;;5075647;28;20051;-80
2023/02/13 05:50:05;;;;;;;34.22;18.95;;;1.20;99.90;;;;;;5087304;28;20123;-81
2023/02/13 05:52:32;;;;;;;32.95;18.15;;;1.30;99.90;;;;;;5076244;28;20095;-81
2023/02/13 05:54:59;;;;;;;31.67;17.90;;;1.30;99.90;;;;;;5075648;28;20048;-81
2023/02/13 05:57:25;;;;;;;30.92;17.30;;;1.40;99.90;;;;;;5079155;28;20131;-80
2023/02/13 05:59:52;;;;;;;34.13;18.17;;;1.40;99.90;;;;;;5067417;28;20105;-81
2023/02/13 06:02:19;;;;;;;28.25;16.00;;;1.50;99.90;;;;;;5076968;28;20047;-81
2023/02/13 06:04:46;;;;;;;28.88;17.95;;;1.50;99.90;;;;;;5076928;28;20055;-82
2023/02/13 06:07:12;;;;;;;29.25;16.08;;;1.50;99.90;;;;;;5069993;28;20052;-81
2023/02/13 06:09:39;;;;;;;31.20;17.02;;;1.60;99.90;;;;;;5078956;28;20475;-81
2023/02/13 06:12:06;;;;;;;28.00;16.75;;;1.60;99.90;;;;;;5074103;28;20049;-81
2023/02/13 06:14:33;;;;;;;28.02;16.88;;;1.70;99.90;;;;;;5081063;28;20481;-82
2023/02/13 06:17:00;;;;;;;28.20;18.67;;;1.70;99.90;;;;;;5080023;28;20780;-80
2023/02/13 06:19:27;;;;;;;30.20;16.80;;;1.70;99.90;;;;;;5088429;28;20116;-81
2023/02/13 06:21:53;;;;;;;27.35;15.93;;;1.80;99.90;;;;;;5092694;28;20055;-80
2023/02/13 06:24:20;;;;;;;27.77;16.80;;;1.80;99.90;;;;;;5080412;28;20051;-80
2023/02/13 06:26:47;;;;;;;21.42;14.45;;;1.90;99.90;;;;;;5083906;28;20048;-80
2023/02/13 06:29:13;;;;;;;26.70;15.55;;;2.00;99.90;;;;;;5087851;28;20052;-80
2023/02/13 06:31:40;;;;;;;29.02;16.33;;;2.00;99.90;;;;;;5093513;28;20048;-80
2023/02/13 06:34:07;;;;;;;30.20;17.02;;;2.00;99.90;;;;;;5094941;28;20052;-82
2023/02/13 06:36:33;;;;;;;33.30;18.67;;;2.10;99.90;;;;;;5100038;28;20091;-81
2023/02/13 06:39:00;;;;;;;29.67;18.35;;;2.10;99.90;;;;;;5087567;28;20051;-81
2023/02/13 06:41:27;;;;;;;29.20;18.48;;;2.10;99.90;;;;;;5086842;28;20036;-81
2023/02/13 06:43:54;;;;;;;30.88;17.70;;;2.10;99.90;;;;;;5085964;28;20058;-81
2023/02/13 06:46:20;;;;;;;34.33;20.13;;;2.20;99.90;;;;;;5093298;28;20103;-80
2023/02/13 06:48:47;;;;;;;32.85;19.45;;;2.20;99.90;;;;;;5092957;28;20055;-81
2023/02/13 06:51:14;;;;;;;31.48;19.60;;;2.20;99.90;;;;;;5086717;28;20134;-81
2023/02/13 06:53:40;;;;;;;35.05;20.60;;;2.30;99.90;;;;;;5081175;28;20562;-81
2023/02/13 06:56:10;;;;;;;35.83;20.33;;;2.30;99.90;;;;;;5093529;28;20062;-81
2023/02/13 06:58:38;;;;;;;33.13;21.15;;;2.30;99.90;;;;;;5091392;28;20577;-81
2023/02/13 07:01:05;;;;;;;38.10;22.05;;;2.40;99.90;;;;;;5092037;28;20555;-81
2023/02/13 07:03:32;;;;;;;32.40;19.63;;;2.40;99.90;;;;;;5096103;28;20189;-81
2023/02/13 07:05:59;;;;;;;39.47;20.85;;;2.40;99.90;;;;;;5090654;28;20079;-81
2023/02/13 07:08:25;;;;;;;36.95;20.38;;;2.40;99.90;;;;;;5086497;28;20050;-81
2023/02/13 07:10:52;;;;;;;31.88;18.95;;;2.40;99.90;;;;;;5086994;28;20052;-81
2023/02/13 07:13:19;;;;;;;32.50;19.70;;;2.40;99.90;;;;;;5088988;28;20048;-82
2023/02/13 07:15:45;;;;;;;36.17;20.35;;;2.40;99.90;;;;;;5094157;28;20044;-82
2023/02/13 07:18:12;;;;;;;34.83;20.80;;;2.40;99.90;;;;;;5096049;28;20044;-81
2023/02/13 07:20:39;;;;;;;37.13;21.98;;;2.40;99.90;;;;;;5093849;28;20060;-81
2023/02/13 07:23:06;;;;;;;33.45;20.98;;;2.40;99.90;;;;;;5088618;28;20080;-82
2023/02/13 07:25:34;;;;;;;36.17;21.02;;;2.50;99.90;;;;;;5086504;28;20037;-80
2023/02/13 07:28:05;;;;;;;34.15;21.25;;;2.60;99.90;;;;;;5090661;28;20048;-81
2023/02/13 07:30:33;;;;;;;38.58;21.00;;;2.60;99.90;;;;;;5092688;28;20051;-81
2023/02/13 07:33:01;;;;;;;31.58;19.80;;;2.60;99.90;;;;;;5097532;28;20075;-82
2023/02/13 07:35:28;;;;;;;32.83;20.67;;;2.70;99.90;;;;;;5085486;28;20044;-81
2023/02/13 07:37:54;;;;;;;39.50;21.67;;;2.70;99.90;;;;;;5081014;28;20131;-82
2023/02/13 07:40:21;;;;;;;43.85;26.92;;;2.80;99.90;;;;;;5087448;28;20048;-81
2023/02/13 07:42:48;;;;;;;51.50;31.00;;;2.80;99.90;;;;;;5095302;28;20174;-81
2023/02/13 07:45:15;;;;;;;38.03;23.85;;;2.90;99.90;;;;;;5096449;28;20040;-81
2023/02/13 07:47:42;;;;;;;37.25;22.05;;;3.00;99.90;;;;;;5093225;28;20040;-81
2023/02/13 07:50:09;;;;;;;37.65;21.77;;;3.00;99.90;;;;;;5077385;28;20106;-80
2023/02/13 07:52:37;;;;;;;38.25;22.27;;;3.10;99.90;;;;;;5084169;28;20079;-81
2023/02/13 07:55:04;;;;;;;39.33;22.48;;;3.10;99.90;;;;;;5089457;28;20134;-81
2023/02/13 07:57:32;;;;;;;34.65;22.42;;;3.10;99.90;;;;;;5092214;28;20093;-81
2023/02/13 07:59:59;;;;;;;36.65;21.95;;;3.20;99.90;;;;;;5095647;28;20040;-81
2023/02/13 08:02:25;;;;;;;34.08;21.25;;;3.20;99.90;;;;;;5081950;28;20096;-82
2023/02/13 08:04:52;;;;;;;39.20;24.60;;;3.30;99.90;;;;;;5085930;28;20050;-82
2023/02/13 08:07:19;;;;;;;39.33;22.52;;;3.30;99.90;;;;;;5086948;28;20550;-82
2023/02/13 08:12:33;;;;;;;36.92;22.15;;;3.40;99.90;;;;;;5086907;28;20074;-82
2023/02/13 08:15:00;;;;;;;37.38;21.85;;;3.50;99.90;;;;;;5095887;28;20076;-83
2023/02/13 08:17:27;;;;;;;41.15;22.83;;;3.60;99.90;;;;;;5083211;28;20080;-81
2023/02/13 08:19:53;;;;;;;36.50;22.40;;;3.60;99.90;;;;;;5083439;28;20080;-81
2023/02/13 08:22:20;;;;;;;33.38;21.08;;;3.70;99.90;;;;;;5085705;28;20067;-82
2023/02/13 08:24:47;;;;;;;36.55;21.75;;;3.80;99.90;;;;;;5088991;28;20041;-82
2023/02/13 08:27:15;;;;;;;38.35;21.73;;;3.80;99.90;;;;;;5093435;28;20044;-81
2023/02/13 08:29:41;;;;;;;35.83;21.88;;;3.90;99.90;;;;;;5093495;28;20482;-81
2023/02/13 08:32:08;;;;;;;31.27;20.35;;;4.00;99.90;;;;;;5088779;28;20048;-82
2023/02/13 08:34:35;;;;;;;35.42;20.33;;;4.00;99.90;;;;;;5083937;28;20044;-81
2023/02/13 08:37:02;;;;;;;33.38;21.02;;;4.00;99.90;;;;;;5089620;28;20098;-82
2023/02/13 08:39:29;;;;;;;33.22;21.98;;;4.10;99.90;;;;;;5090734;28;20067;-81
2023/02/13 08:41:56;;;;;;;35.05;21.75;;;4.20;99.90;;;;;;5095488;28;20060;-81
2023/02/13 08:44:23;;;;;;;31.67;19.75;;;4.20;99.90;;;;;;5081876;28;20072;-82
2023/02/13 08:46:49;;;;;;;35.30;21.13;;;4.30;99.90;;;;;;5081819;28;20120;-81
2023/02/13 08:49:16;;;;;;;38.30;22.67;;;4.30;99.90;;;;;;5085655;28;20054;-82
2023/02/13 08:51:43;;;;;;;41.05;23.10;;;4.40;99.90;;;;;;5091989;28;20402;-81
2023/02/13 08:54:09;;;;;;;39.05;25.58;;;4.40;99.90;;;;;;5092364;28;20119;-81
2023/02/13 08:56:36;;;;;;;40.60;26.42;;;4.50;99.90;;;;;;5092645;28;20109;-81
2023/02/13 08:59:03;;;;;;;39.13;25.02;;;4.50;99.90;;;;;;5090435;28;20054;-81
2023/02/13 09:01:29;;;;;;;45.33;26.42;;;4.60;99.90;;;;;;5085398;28;20040;-80
2023/02/13 09:03:56;;;;;;;44.65;25.65;;;4.60;99.90;;;;;;5093927;28;20048;-82
2023/02/13 09:06:25;;;;;;;41.13;24.73;;;4.70;99.90;;;;;;5087256;28;20087;-81
2023/02/13 09:08:52;;;;;;;46.72;28.05;;;4.80;99.90;;;;;;5090773;28;20051;-81
2023/02/13 09:11:22;;;;;;;48.10;27.77;;;4.80;99.90;;;;;;5093913;28;20075;-80
2023/02/13 09:13:52;;;;;;;56.55;30.05;;;4.80;99.90;;;;;;5078504;28;20044;-82
2023/02/13 09:16:20;;;;;;;54.92;28.95;;;4.90;99.90;;;;;;5074289;28;20044;-82
2023/02/13 09:18:48;;;;;;;54.42;30.40;;;5.00;99.90;;;;;;5088806;28;20044;-81
2023/02/13 09:21:16;;;;;;;53.83;31.80;;;5.00;99.90;;;;;;5089812;28;20063;-81
2023/02/13 09:23:42;;;;;;;49.05;29.63;;;5.00;99.90;;;;;;5091912;28;20064;-82
2023/02/13 09:26:12;;;;;;;51.28;29.20;;;5.00;99.90;;;;;;5088859;28;20052;-82
2023/02/13 09:28:40;;;;;;;59.17;29.63;;;5.10;99.90;;;;;;5079898;28;20051;-81
2023/02/13 09:31:20;;;;;;;53.47;30.33;;;5.10;99.90;;;;;;5084657;28;20052;-80
2023/02/13 09:33:47;;;;;;;;;;;5.20;99.90;;;;;;5085029;28;20055;-82
2023/02/13 09:36:20;;;;;;;51.78;29.67;;;5.30;99.90;;;;;;5090673;28;19927;-81
2023/02/13 09:38:51;;;;;;;50.92;28.70;;;5.30;99.90;;;;;;5094219;28;20046;-81
2023/02/13 09:41:23;;;;;;;51.13;30.00;;;5.40;99.90;;;;;;5076544;28;20044;-82
2023/02/13 09:44:05;;;;;;;52.42;28.77;;;5.40;99.90;;;;;;5083519;28;20045;-81
2023/02/13 09:46:38;;;;;;;58.22;32.47;;;5.50;99.90;;;;;;5096615;28;20127;-81
2023/02/13 09:49:11;;;;;;;50.88;29.63;;;5.50;99.90;;;;;;5086694;28;20052;-81
2023/02/13 09:51:41;;;;;;;51.67;29.67;;;5.60;99.90;;;;;;5089673;28;20044;-82
2023/02/13 09:54:15;;;;;;;54.13;30.38;;;5.60;99.90;;;;;;5099424;28;20076;-80
2023/02/13 09:56:59;;;;;;;49.90;29.17;;;5.70;99.90;;;;;;5087295;28;20126;-82
2023/02/13 09:59:48;;;;;;;54.72;31.60;;;5.80;99.90;;;;;;5090724;28;20132;-82
2023/02/13 10:02:40;;;;;;;50.30;29.13;;;5.90;99.90;;;;;;5083522;28;20132;-81
2023/02/13 10:05:36;;;;;;;46.42;28.25;;;5.90;99.90;;;;;;5094618;28;20089;-82
2023/02/13 10:08:32;;;;;;;51.60;29.38;;;6.00;99.90;;;;;;5101974;28;20058;-81
2023/02/13 10:11:47;;;;;;;45.10;27.85;;;6.10;99.90;;;;;;5097214;28;20052;-82
2023/02/13 10:14:25;;;;;;;47.60;26.35;;;6.10;99.90;;;;;;5091934;28;20070;-81
2023/02/13 10:17:05;;;;;;;43.60;26.58;;;6.20;99.90;;;;;;5086930;28;20049;-81
2023/02/13 10:19:40;;;;;;;50.88;27.00;;;6.30;99.90;;;;;;5087265;28;20123;-80
2023/02/13 10:22:16;;;;;;;51.25;28.13;;;6.30;99.90;;;;;;5098184;28;20040;-81
2023/02/13 10:24:52;;;;;;;45.70;25.90;;;6.20;99.90;;;;;;5088153;28;20055;-82
2023/02/13 10:27:22;;;;;;;47.47;27.67;;;6.20;99.90;;;;;;5084824;28;20100;-81
2023/02/13 10:30:04;;;;;;;44.40;27.40;;;6.20;99.90;;;;;;5091040;28;20134;-82
2023/02/13 10:32:50;;;;;;;43.05;26.77;;;6.20;99.90;;;;;;5088915;28;20485;-82
2023/02/13 10:35:29;;;;;;;45.92;26.65;;;6.10;99.90;;;;;;5097363;28;20072;-81
2023/02/13 10:37:58;;;;;;;45.63;28.00;;;6.20;99.90;;;;;;5085528;28;20051;-81
2023/02/13 10:40:32;;;;;;;50.67;29.45;;;6.20;99.90;;;;;;5080689;28;20072;-82
2023/02/13 10:43:07;;;;;;;55.35;29.90;;;6.20;99.90;;;;;;5086039;28;20067;-82
2023/02/13 10:45:50;;;;;;;52.22;29.30;;;6.10;99.90;;;;;;5093565;28;20040;-81
2023/02/13 10:48:22;;;;;;;52.85;30.25;;;6.00;99.90;;;;;;5095975;28;20083;-82
2023/02/13 10:51:12;;;;;;;54.47;30.00;;;5.90;99.90;;;;;;5093935;28;20049;-80
2023/02/13 10:54:07;;;;;;;51.83;29.20;;;5.80;99.90;;;;;;5100302;28;20470;-80
2023/02/13 10:57:06;;;;;;;55.42;27.63;;;5.80;99.90;;;;;;5071622;28;20162;-82
2023/02/13 10:59:39;;;;;;;47.28;27.35;;;5.80;99.90;;;;;;5083818;28;20047;-81
2023/02/13 11:02:31;;;;;;;50.17;29.13;;;5.70;99.90;;;;;;5071224;28;20453;-81
2023/02/13 11:05:01;;;;;;;49.13;27.75;;;5.70;99.90;;;;;;5091486;28;20512;-81
2023/02/13 11:07:30;;;;;;;49.72;27.83;;;5.60;99.90;;;;;;5081471;28;20044;-82
2023/02/13 11:10:05;;;;;;;49.33;28.75;;;5.50;99.90;;;;;;5091606;28;20399;-82
2023/02/13 11:12:33;;;;;;;54.72;29.70;;;5.50;99.90;;;;;;5092813;28;20054;-82
2023/02/13 11:15:05;;;;;;;52.05;30.05;;;5.50;99.90;;;;;;5093799;28;20135;-82
2023/02/13 11:17:35;;;;;;;50.95;27.55;;;5.50;99.90;;;;;;5096930;28;20770;-81
2023/02/13 11:20:06;;;;;;;;;;;5.40;99.90;;;;;;5089782;28;20049;-82
2023/02/13 11:22:41;;;;;;;51.67;26.77;;;5.40;99.90;;;;;;5082281;28;19920;-82
2023/02/13 11:25:19;;;;;;;50.40;28.48;;;5.40;99.90;;;;;;5074391;28;20104;-81
2023/02/13 11:27:49;;;;;;;53.67;28.73;;;5.40;99.90;;;;;;5105349;28;20150;-81
2023/02/13 11:30:33;;;;;;;52.25;28.90;;;5.40;99.90;;;;;;5094129;28;20070;-82
2023/02/13 11:33:05;;;;;;;47.67;26.75;;;5.40;99.90;;;;;;5092287;28;20086;-80
2023/02/13 11:35:35;;;;;;;53.35;27.73;;;5.40;99.90;;;;;;5091415;28;20066;-82
2023/02/13 11:38:14;;;;;;;49.45;28.25;;;5.40;99.90;;;;;;5099225;28;20310;-81
2023/02/13 11:40:44;;;;;;;50.72;28.85;;;5.40;99.90;;;;;;5078021;28;20044;-81
2023/02/13 11:43:34;;;;;;;54.25;29.05;;;5.40;99.90;;;;;;5100244;28;20078;-82
2023/02/13 11:46:03;;;;;;;47.63;27.70;;;5.40;99.90;;;;;;5102951;28;20051;-82
2023/02/13 11:48:30;;;;;;;54.95;29.38;;;5.40;99.90;;;;;;5080732;28;20072;-82
2023/02/13 11:50:57;;;;;;;54.22;29.80;;;5.40;99.90;;;;;;5084811;28;20056;-80
2023/02/13 11:53:29;;;;;;;52.78;28.40;;;5.40;99.90;;;;;;5086401;28;20076;-82
2023/02/13 11:56:11;;;;;;;49.63;28.13;;;5.40;99.90;;;;;;5092274;28;20079;-81
2023/02/13 11:58:38;;;;;;;49.53;28.23;;;5.40;99.90;;;;;;5090490;28;20121;-82
2023/02/13 12:01:18;;;;;;;45.42;27.02;;;5.40;99.90;;;;;;5089614;28;20071;-82
2023/02/13 12:04:01;;;;;;;48.53;27.33;;;5.40;99.90;;;;;;5075544;28;20072;-81
2023/02/13 12:06:28;;;;;;;46.40;27.80;;;5.40;99.90;;;;;;5101390;28;20108;-82
2023/02/13 12:08:56;;;;;;;50.70;28.45;;;5.50;99.90;;;;;;5090412;28;20517;-81
2023/02/13 12:11:26;;;;;;;47.38;27.35;;;5.50;99.90;;;;;;5093757;28;20134;-82
2023/02/13 12:13:54;;;;;;;48.22;28.50;;;5.50;99.90;;;;;;5095129;28;20059;-82
2023/02/13 12:16:42;;;;;;;49.00;27.33;;;5.60;99.90;;;;;;5063979;28;20051;-82
2023/02/13 12:19:19;;;;;;;48.55;27.40;;;5.50;99.90;;;;;;5088884;28;20405;-82
2023/02/13 12:22:05;;;;;;;50.13;27.83;;;5.60;99.90;;;;;;5084073;28;20049;-82
2023/02/13 12:24:41;;;;;;;49.28;27.85;;;5.70;99.90;;;;;;5071616;28;20040;-80
2023/02/13 12:27:25;;;;;;;50.80;27.70;;;5.70;99.90;;;;;;5096541;28;20509;-79
2023/02/13 12:30:09;;;;;;;43.40;27.15;;;5.70;99.90;;;;;;5089440;28;20049;-81
2023/02/13 12:33:15;;;;;;;45.05;27.08;;;5.80;99.90;;;;;;5081145;28;20068;-82
2023/02/13 12:36:11;;;;;;;48.88;29.20;;;5.80;99.90;;;;;;5084996;28;20040;-82
2023/02/13 12:39:03;;;;;;;45.38;26.58;;;5.90;99.90;;;;;;5058154;28;20511;-82
2023/02/13 12:41:47;;;;;;;51.97;30.65;;;5.90;99.90;;;;;;5062940;28;20052;-81
2023/02/13 12:44:27;;;;;;;50.97;28.02;;;5.90;99.90;;;;;;5091795;28;20068;-82
2023/02/13 12:47:04;;;;;;;43.63;26.50;;;5.90;99.90;;;;;;5084999;28;20044;-82
2023/02/13 12:49:42;;;;;;;44.75;26.58;;;6.00;99.90;;;;;;5084745;28;20054;-81
2023/02/13 12:52:22;;;;;;;44.05;24.95;;;6.00;99.90;;;;;;5087620;28;20060;-82
2023/02/13 12:55:04;;;;;;;43.38;26.42;;;6.10;99.90;;;;;;5087769;28;20066;-82
2023/02/13 12:57:55;;;;;;;48.03;27.90;;;6.10;99.90;;;;;;5089751;28;20044;-81
2023/02/13 13:00:52;;;;;;;43.40;25.45;;;6.10;99.90;;;;;;5081625;28;20064;-81
2023/02/13 13:03:38;;;;;;;41.47;24.88;;;6.20;99.90;;;;;;5081882;28;20456;-81
2023/02/13 13:06:18;;;;;;;38.75;24.05;;;6.20;99.90;;;;;;5090514;28;20059;-82
2023/02/13 13:09:00;;;;;;;39.13;24.90;;;6.30;99.90;;;;;;5092607;28;20048;-82
2023/02/13 13:11:58;;;;;;;37.83;22.88;;;6.30;99.90;;;;;;5091647;28;20050;-81
2023/02/13 13:14:58;;;;;;;44.08;25.13;;;6.30;99.90;;;;;;5081597;28;20044;-82
2023/02/13 13:17:56;;;;;;;38.25;23.75;;;6.40;99.90;;;;;;5083451;28;20500;-81
2023/02/13 13:20:54;;;;;;;35.15;21.60;;;6.40;99.90;;;;;;5086633;28;20068;-82
2023/02/13 13:23:27;;;;;;;39.10;23.63;;;6.40;99.90;;;;;;5067347;28;20044;-82
2023/02/13 13:26:21;;;;;;;37.30;23.08;;;6.50;99.90;;;;;;5076692;28;20053;-81
2023/02/13 13:28:55;;;;;;;38.65;23.77;;;6.50;99.90;;;;;;5080624;28;20037;-82
2023/02/13 13:31:25;;;;;;;33.97;22.40;;;6.60;99.90;;;;;;5064106;28;20051;-82
2023/02/13 13:33:55;;;;;;;36.05;22.77;;;6.60;99.90;;;;;;5081622;28;20044;-81
2023/02/13 13:36:37;;;;;;;35.70;22.17;;;6.60;99.90;;;;;;5085823;28;20131;-82
2023/02/13 13:39:20;;;;;;;40.50;24.63;;;6.70;99.90;;;;;;5093554;28;20048;-82
2023/02/13 13:42:09;;;;;;;36.60;22.63;;;6.70;99.90;;;;;;5078424;28;20041;-81
2023/02/13 13:45:19;;;;;;;31.88;21.98;;;6.80;99.90;;;;;;5077021;28;20100;-82